Time;durP1;ratioP1;P1;durP2;ratioP2;P2;SDS_P1;SDS_P2;PMS_P1;PMS_P2;Temp;Humidity;BMP_temperature;BMP_pressure;BME280_temperature;BME280_humidity;BME280_pressure;Samples;Min_cycle;Max_cycle;Signal;HPM_P1;HPM_P2
2023/12/27 00:02:35;823213.00;2.74;1421.64;84811.00;0.28;147.35;;;;;12.10;1.00;;;;;;2270576;61;1293;-89
2023/12/27 00:14:56;850219.00;2.83;1468.85;84494.00;0.28;146.80;;;;;13.10;1.00;;;;;;1534398;56;3535;-90
2023/12/27 00:44:42;474233.00;1.58;817.47;98210.00;0.33;170.48;;;;;13.00;1.00;;;;;;2270475;61;1297;-89
2023/12/27 00:47:09;392607.00;1.31;677.10;86724.00;0.29;150.65;;;;;12.80;1.00;;;;;;2268606;61;500;-90
2023/12/27 00:52:03;1024810.00;3.42;1776.46;83483.00;0.28;145.05;;;;;13.00;1.00;;;;;;2269372;61;1368;-88
2023/12/27 01:14:29;1605756.00;5.35;2843.74;277459.00;0.92;479.17;;;;;12.70;1.00;;;;;;2271633;55;3664;-88
2023/12/27 01:32:01;1332051.00;4.44;2330.88;63039.00;0.21;109.73;;;;;12.60;1.00;;;;;;2269347;61;1200;-89
2023/12/27 01:39:32;1251068.00;4.17;2182.83;90079.00;0.30;156.44;;;;;12.40;1.00;;;;;;2273466;61;1309;-88
2023/12/27 01:41:59;1007139.00;3.36;1745.12;61152.00;0.20;106.47;;;;;12.60;1.00;;;;;;2272882;61;1628;-88
2023/12/27 01:44:26;1003570.00;3.35;1738.80;78550.00;0.26;136.53;;;;;12.50;1.00;;;;;;2273119;61;1608;-90
2023/12/27 02:21:44;431101.00;1.44;743.28;0.00;0.00;0.62;;;;;12.30;1.00;;;;;;2305975;40;3693;-88
2023/12/27 02:44:14;166564.00;0.56;288.35;0.00;0.00;0.62;;;;;11.90;1.00;;;;;;2269316;61;1440;-88
2023/12/27 02:49:14;480344.00;1.60;827.99;0.00;0.00;0.62;;;;;11.80;1.00;;;;;;2269671;61;1900;-87
2023/12/27 03:01:46;392435.00;1.31;676.80;0.00;0.00;0.62;;;;;11.80;1.00;;;;;;1558400;56;3561;-87
2023/12/27 03:04:15;238225.00;0.79;411.70;0.00;0.00;0.62;;;;;12.10;1.00;;;;;;2268025;61;1560;-88
2023/12/27 03:06:42;182968.00;0.61;316.60;0.00;0.00;0.62;;;;;11.90;1.00;;;;;;2313975;55;3794;-88
2023/12/27 03:09:08;160088.00;0.53;277.19;30461.00;0.10;53.38;;;;;11.80;1.00;;;;;;2267952;61;1914;-90
2023/12/27 03:26:29;381326.00;1.27;657.70;0.00;0.00;0.62;;;;;11.80;1.00;;;;;;2269908;61;1421;-88
2023/12/27 03:36:23;381922.00;1.27;658.73;18504.00;0.06;32.68;;;;;12.00;1.00;;;;;;2269978;61;1408;-90
2023/12/27 03:38:49;75743.00;0.25;131.68;0.00;0.00;0.62;;;;;11.70;1.00;;;;;;2267902;61;1718;-89
2023/12/27 03:43:46;154179.00;0.51;267.01;0.00;0.00;0.62;;;;;11.80;1.00;;;;;;2297475;55;3696;-88
2023/12/27 03:46:12;58956.00;0.20;102.67;0.00;0.00;0.62;;;;;11.90;1.00;;;;;;2267754;61;1090;-88
2023/12/27 03:51:11;128701.00;0.43;223.09;0.00;0.00;0.62;;;;;11.70;1.00;;;;;;2269729;61;1403;-87
2023/12/27 03:58:35;245917.00;0.82;424.93;0.00;0.00;0.62;;;;;11.70;1.00;;;;;;2269269;61;1440;-86
2023/12/27 04:08:28;288469.00;0.96;498.10;0.00;0.00;0.62;;;;;11.00;1.00;;;;;;2269543;61;1974;-88
2023/12/27 04:13:24;222814.00;0.74;385.19;0.00;0.00;0.62;;;;;10.80;1.00;;;;;;2269477;61;1416;-86
2023/12/27 04:15:51;226883.00;0.76;392.19;45599.00;0.15;79.57;;;;;10.80;1.00;;;;;;2267826;61;999;-86
2023/12/27 04:20:46;269779.00;0.90;465.96;0.00;0.00;0.62;;;;;10.90;1.00;;;;;;2269855;61;1388;-87
2023/12/27 04:23:12;80916.00;0.27;140.62;0.00;0.00;0.62;;;;;10.80;1.00;;;;;;2267745;61;1435;-89
2023/12/27 04:25:41;67469.00;0.22;117.39;0.00;0.00;0.62;;;;;10.80;1.00;;;;;;2267743;61;1642;-89
2023/12/27 04:30:35;454659.00;1.52;783.80;58528.00;0.20;101.93;;;;;10.70;1.00;;;;;;2269712;61;1388;-90
2023/12/27 04:40:28;332549.00;1.11;573.87;0.00;0.00;0.62;;;;;10.00;1.00;;;;;;2274328;40;3493;-88
2023/12/27 04:42:57;347160.00;1.16;598.98;0.00;0.00;0.62;;;;;10.00;1.00;;;;;;2269141;61;1780;-88
2023/12/27 05:00:23;427177.00;1.42;736.53;14526.00;0.05;25.79;;;;;9.80;1.00;;;;;;1574002;40;3460;-87
2023/12/27 05:02:50;124398.00;0.41;215.67;0.00;0.00;0.62;;;;;9.90;1.00;;;;;;2267755;61;1787;-86
2023/12/27 05:15:13;390017.00;1.30;672.64;18102.00;0.06;31.98;;;;;9.70;1.00;;;;;;2317161;55;3624;-87
2023/12/27 05:17:41;187260.00;0.62;323.99;0.00;0.00;0.62;;;;;9.80;1.00;;;;;;2269106;61;1136;-88
2023/12/27 05:20:08;152747.00;0.51;264.54;7843.00;0.03;14.21;;;;;9.80;1.00;;;;;;2268295;61;1278;-85
2023/12/27 05:30:03;415663.00;1.39;716.73;24490.00;0.08;43.04;;;;;9.50;1.00;;;;;;2270085;61;1981;-87
2023/12/27 05:40:00;261385.00;0.87;451.53;0.00;0.00;0.62;;;;;9.30;1.00;;;;;;2269783;61;1436;-88
2023/12/27 05:44:54;323840.00;1.08;558.90;88920.00;0.30;154.44;;;;;9.40;1.00;;;;;;2270154;61;1434;-87
2023/12/27 05:47:21;410969.00;1.37;708.66;119052.00;0.40;206.45;;;;;9.40;1.00;;;;;;2268373;61;1762;-87
2023/12/27 05:52:16;118340288.00;394.47;67132952.00;117900016.00;393.00;66385784.00;;;;;9.10;1.00;;;;;;2270121;61;1475;-89
2023/12/27 06:02:16;275985.00;0.92;476.63;78603.00;0.26;136.62;;;;;9.60;1.00;;;;;;2269783;61;1369;-87
2023/12/27 06:04:42;460539.00;1.54;793.91;114082.00;0.38;197.87;;;;;9.80;1.00;;;;;;2297095;55;3772;-87
2023/12/27 06:17:04;316098.00;1.05;545.59;93924.00;0.31;163.08;;;;;9.60;1.00;;;;;;2266211;61;1306;-86
2023/12/27 06:19:32;485233.00;1.62;836.40;94956.00;0.32;164.86;;;;;9.70;1.00;;;;;;2266976;61;2416;-86
2023/12/27 06:24:27;578934.00;1.93;997.86;119674.00;0.40;207.52;;;;;9.20;1.00;;;;;;2270069;61;1379;-87
2023/12/27 06:26:54;238063.00;0.79;411.42;84872.00;0.28;147.45;;;;;9.10;1.00;;;;;;2315657;56;3721;-87
2023/12/27 06:39:19;895355.00;2.98;1547.96;76775.00;0.26;133.47;;;;;9.40;1.00;;;;;;2272422;61;1422;-88
2023/12/27 06:41:46;429558.00;1.43;740.63;102658.00;0.34;178.16;;;;;9.40;1.00;;;;;;2272190;61;1017;-87
2023/12/27 06:44:13;413323.00;1.38;712.71;85779.00;0.29;149.02;;;;;9.50;1.00;;;;;;2272108;61;973;-88
2023/12/27 06:46:40;506414.00;1.69;872.87;89038.00;0.30;154.65;;;;;9.30;1.00;;;;;;2272305;61;1009;-89
2023/12/27 06:54:22;1416872.00;4.72;2487.65;54519.00;0.18;95.00;;;;;8.80;1.00;;;;;;2310539;55;3673;-88
2023/12/27 07:19:16;995323.00;3.32;1724.19;69641.00;0.23;121.14;;;;;8.50;1.00;;;;;;2272814;61;1302;-89
2023/12/27 07:34:10;608976.00;2.03;1049.72;14594.00;0.05;25.91;;;;;9.10;1.00;;;;;;1969382;56;3540;-88
2023/12/27 07:36:38;358206.00;1.19;617.97;12808.00;0.04;22.81;;;;;9.10;1.00;;;;;;2270924;40;3576;-89
2023/12/27 07:46:33;193903.00;0.65;335.43;0.00;0.00;0.62;;;;;9.50;1.00;;;;;;2270658;61;1325;-87
2023/12/27 08:11:25;231782.00;0.77;400.61;0.00;0.00;0.62;;;;;9.50;1.00;;;;;;1988692;40;3436;-87
2023/12/27 08:13:52;180207.00;0.60;311.85;0.00;0.00;0.62;;;;;9.40;1.00;;;;;;2321023;40;3557;-86
2023/12/27 08:28:53;93280.00;0.31;161.97;0.00;0.00;0.62;;;;;9.70;1.00;;;;;;2270338;61;1885;-88
2023/12/27 08:31:20;279064.00;0.93;481.93;0.00;0.00;0.62;;;;;9.70;1.00;;;;;;2268636;61;772;-90
2023/12/27 08:33:48;61726.00;0.21;107.46;0.00;0.00;0.62;;;;;9.80;1.00;;;;;;2268547;61;1476;-88
2023/12/27 08:36:15;154321.00;0.51;267.25;41932.00;0.14;73.23;;;;;9.80;1.00;;;;;;2268581;61;1724;-89
2023/12/27 08:41:10;233778.00;0.78;404.05;0.00;0.00;0.62;;;;;9.70;1.00;;;;;;2283916;40;3518;-86
2023/12/27 08:43:37;36099.00;0.12;63.14;0.00;0.00;0.62;;;;;9.70;1.00;;;;;;2267571;61;1606;-88
2023/12/27 08:58:31;47230.00;0.16;82.40;0.00;0.00;0.62;;;;;10.30;1.00;;;;;;2270092;61;1403;-88
2023/12/27 09:10:53;289899.00;0.97;500.56;0.00;0.00;0.62;;;;;11.00;1.00;;;;;;2269892;61;1969;-86
2023/12/27 09:15:55;382543.00;1.28;659.80;28771.00;0.10;50.46;;;;;10.90;1.00;;;;;;2270255;61;1435;-89
2023/12/27 09:30:47;327265.00;1.09;564.79;8213.00;0.03;14.85;;;;;10.50;1.00;;;;;;2304157;55;3547;-89
2023/12/27 09:40:42;454117.00;1.51;782.86;47411.00;0.16;82.71;;;;;11.20;1.00;;;;;;1992519;55;3610;-88
2023/12/27 09:45:41;333941.00;1.11;576.26;33267.00;0.11;58.24;;;;;11.20;1.00;;;;;;2270371;61;1352;-85
2023/12/27 09:55:38;187221.00;0.62;323.92;0.00;0.00;0.62;;;;;11.60;1.00;;;;;;2270393;61;1438;-88
2023/12/27 09:58:07;145490.00;0.48;252.03;26643.00;0.09;46.77;;;;;11.60;1.00;;;;;;2268369;61;1762;-87
2023/12/27 10:00:36;275401.00;0.92;475.63;39442.00;0.13;68.92;;;;;11.50;1.00;;;;;;2268335;61;1565;-87
2023/12/27 10:03:05;210222.00;0.70;363.52;55632.00;0.19;96.93;;;;;11.50;1.00;;;;;;2268189;61;979;-89
2023/12/27 10:05:44;122830.00;0.41;212.96;0.00;0.00;0.62;;;;;11.60;1.00;;;;;;2268273;61;911;-87
2023/12/27 10:40:44;378442.00;1.26;652.75;47865.00;0.16;83.49;;;;;12.80;1.00;;;;;;2003891;40;3430;-89
2023/12/27 10:43:10;702.00;0.00;1.84;0.00;0.00;0.62;;;;;12.90;1.00;;;;;;2305159;40;3590;-89
2023/12/27 10:50:35;166593.00;0.56;288.40;0.00;0.00;0.62;;;;;12.80;1.00;;;;;;2269502;61;1958;-89
2023/12/27 10:53:06;152511.00;0.51;264.13;0.00;0.00;0.62;;;;;12.80;1.00;;;;;;2273806;40;3591;-89
2023/12/27 10:55:34;223931.00;0.75;387.11;41179.00;0.14;71.93;;;;;13.00;1.00;;;;;;2267937;61;1552;-90
2023/12/27 11:00:32;175247.00;0.58;303.30;0.00;0.00;0.62;;;;;12.70;1.00;;;;;;2269780;61;1389;-88
2023/12/27 11:02:59;196081.00;0.65;339.18;0.00;0.00;0.62;;;;;12.70;1.00;;;;;;2267873;61;1052;-89
2023/12/27 11:05:29;244806.00;0.82;423.02;34487.00;0.11;60.35;;;;;12.80;1.00;;;;;;2268168;61;949;-87
2023/12/27 11:07:58;79724.00;0.27;138.56;0.00;0.00;0.62;;;;;12.80;1.00;;;;;;2267865;61;1705;-88
2023/12/27 11:10:29;110404.00;0.37;191.53;0.00;0.00;0.62;;;;;12.80;1.00;;;;;;2263910;61;1998;-90
2023/12/27 11:15:28;85353.00;0.28;148.28;0.00;0.00;0.62;;;;;12.90;1.00;;;;;;2269654;61;1555;-88
2023/12/27 11:22:55;334810.00;1.12;577.75;0.00;0.00;0.62;;;;;13.20;1.00;;;;;;2266027;61;1232;-90
2023/12/27 11:25:22;207716.00;0.69;359.20;0.00;0.00;0.62;;;;;13.60;1.00;;;;;;2263796;61;1115;-88
2023/12/27 11:35:24;182936.00;0.61;316.55;0.00;0.00;0.62;;;;;13.70;1.00;;;;;;2274251;40;3501;-90
2023/12/27 11:50:29;136833.00;0.46;237.11;0.00;0.00;0.62;;;;;14.00;1.00;;;;;;2269914;61;1907;-88
2023/12/27 11:52:58;330714.00;1.10;570.71;74758.00;0.25;129.98;;;;;14.10;1.00;;;;;;2268079;61;1126;-87
2023/12/27 11:55:33;119017.00;0.40;206.39;26997.00;0.09;47.38;;;;;14.20;1.00;;;;;;2268121;61;1035;-87
2023/12/27 11:57:59;79537.00;0.27;138.24;0.00;0.00;0.62;;;;;14.20;1.00;;;;;;2267803;61;1467;-87
2023/12/27 12:00:28;108197.00;0.36;187.72;0.00;0.00;0.62;;;;;14.00;1.00;;;;;;2264082;61;1096;-87
2023/12/27 12:05:48;2358.00;0.01;4.71;0.00;0.00;0.62;;;;;14.80;1.00;;;;;;2270067;61;1241;-87
2023/12/27 12:08:25;342878.00;1.14;591.62;85753.00;0.29;148.97;;;;;15.10;1.00;;;;;;2268013;61;1305;-87
2023/12/27 12:11:06;96907.00;0.32;168.23;0.00;0.00;0.62;;;;;15.10;1.00;;;;;;2267963;61;2000;-86
2023/12/27 12:13:34;43684.00;0.15;76.26;0.00;0.00;0.62;;;;;15.00;1.00;;;;;;2267988;61;1676;-86
2023/12/27 12:16:01;60571.00;0.20;105.46;0.00;0.00;0.62;;;;;14.60;1.00;;;;;;2268057;61;1026;-88
2023/12/27 12:18:29;6587.00;0.02;12.04;0.00;0.00;0.62;;;;;14.70;1.00;;;;;;2267971;61;1368;-86
2023/12/27 12:20:58;92920.00;0.31;161.35;0.00;0.00;0.62;;;;;14.40;1.00;;;;;;2268101;61;1148;-86
2023/12/27 12:23:25;50305.00;0.17;87.71;0.00;0.00;0.62;;;;;14.40;1.00;;;;;;2267997;61;1072;-88
2023/12/27 12:25:52;47760.00;0.16;83.31;0.00;0.00;0.62;;;;;14.40;1.00;;;;;;2267985;61;1114;-88
2023/12/27 12:28:19;258587.00;0.86;446.72;0.00;0.00;0.62;;;;;14.60;1.00;;;;;;2267962;61;1222;-87
2023/12/27 12:30:47;66389.00;0.22;115.52;0.00;0.00;0.62;;;;;14.70;1.00;;;;;;2267979;61;1996;-87
2023/12/27 12:33:14;22002.00;0.07;38.74;0.00;0.00;0.62;;;;;14.80;1.00;;;;;;2267920;61;1118;-87
2023/12/27 12:35:40;362496.00;1.21;625.34;82770.00;0.28;143.82;;;;;14.70;1.00;;;;;;2267966;61;1024;-87
2023/12/27 12:38:09;188771.00;0.63;326.59;37067.00;0.12;64.81;;;;;14.80;1.00;;;;;;2267914;61;1325;-87
2023/12/27 12:40:36;165094.00;0.55;285.82;32084.00;0.11;56.19;;;;;14.80;1.00;;;;;;2267864;61;1654;-87
2023/12/27 12:43:04;115266.00;0.38;199.92;26945.00;0.09;47.29;;;;;14.90;1.00;;;;;;2267953;61;1130;-86
2023/12/27 12:45:32;161113.00;0.54;278.96;16356.00;0.05;28.96;;;;;14.90;1.00;;;;;;2267935;61;1028;-87
2023/12/27 12:47:59;124378.00;0.41;215.63;0.00;0.00;0.62;;;;;14.80;1.00;;;;;;2267911;61;1386;-86
2023/12/27 12:50:25;238.00;0.00;1.03;0.00;0.00;0.62;;;;;14.80;1.00;;;;;;2267858;61;2009;-86
2023/12/27 12:52:52;75853.00;0.25;131.87;0.00;0.00;0.62;;;;;15.00;1.00;;;;;;2267905;61;1092;-87
2023/12/27 12:55:22;1282.00;0.00;2.84;0.00;0.00;0.62;;;;;15.10;1.00;;;;;;2267881;61;1056;-89
2023/12/27 12:57:49;69144.00;0.23;120.28;0.00;0.00;0.62;;;;;15.00;1.00;;;;;;2267902;61;1115;-87
2023/12/27 13:00:22;76701.00;0.26;133.34;0.00;0.00;0.62;;;;;15.00;1.00;;;;;;2267939;61;1454;-87
2023/12/27 13:02:49;66275.00;0.22;115.32;0.00;0.00;0.62;;;;;15.00;1.00;;;;;;2267859;61;1034;-86
2023/12/27 13:05:16;24982.00;0.08;43.90;0.00;0.00;0.62;;;;;15.10;1.00;;;;;;2267873;61;1049;-86
2023/12/27 13:07:43;7771.00;0.03;14.09;0.00;0.00;0.62;;;;;15.20;1.00;;;;;;2267910;61;1037;-87
2023/12/27 13:10:11;24662.00;0.08;43.34;0.00;0.00;0.62;;;;;15.10;1.00;;;;;;2267836;61;2014;-88
2023/12/27 13:12:41;155733.00;0.52;269.69;0.00;0.00;0.62;;;;;15.10;1.00;;;;;;2267906;61;1069;-87
2023/12/27 13:15:08;54694.00;0.18;95.30;0.00;0.00;0.62;;;;;15.10;1.00;;;;;;2267856;61;1024;-87
2023/12/27 13:17:35;30591.00;0.10;53.61;0.00;0.00;0.62;;;;;15.00;1.00;;;;;;2267891;61;1041;-88
2023/12/27 13:20:02;61562.00;0.21;107.18;0.00;0.00;0.62;;;;;14.90;1.00;;;;;;2267878;61;1404;-87
2023/12/27 13:22:29;39468.00;0.13;68.97;0.00;0.00;0.62;;;;;14.90;1.00;;;;;;2267896;61;1062;-87
2023/12/27 13:24:55;61820.00;0.21;107.62;0.00;0.00;0.62;;;;;14.90;1.00;;;;;;2267882;61;1120;-88
2023/12/27 13:27:22;129799.00;0.43;224.98;38214.00;0.13;66.80;;;;;15.00;1.00;;;;;;2267873;61;968;-87
2023/12/27 13:29:50;98605.00;0.33;171.16;2886.00;0.01;5.62;;;;;14.90;1.00;;;;;;2267736;61;2008;-87
2023/12/27 13:32:17;74.00;0.00;0.75;0.00;0.00;0.62;;;;;14.90;1.00;;;;;;2267697;61;1107;-87
2023/12/27 13:34:44;26528.00;0.09;46.57;0.00;0.00;0.62;;;;;15.00;1.00;;;;;;2267856;61;1055;-86
2023/12/27 13:37:11;76419.00;0.25;132.85;0.00;0.00;0.62;;;;;15.00;1.00;;;;;;2268000;61;1077;-88
2023/12/27 13:39:37;5116.00;0.02;9.49;0.00;0.00;0.62;;;;;15.10;1.00;;;;;;2268504;61;1379;-87
2023/12/27 13:42:04;48472.00;0.16;84.54;0.00;0.00;0.62;;;;;15.20;1.00;;;;;;2268432;61;1094;-86
2023/12/27 13:44:31;253.00;0.00;1.06;0.00;0.00;0.62;;;;;15.10;1.00;;;;;;2268428;61;1053;-87
2023/12/27 13:46:59;86056.00;0.29;149.50;0.00;0.00;0.62;;;;;15.10;1.00;;;;;;2268408;61;933;-86
2023/12/27 13:49:26;45126.00;0.15;78.76;0.00;0.00;0.62;;;;;15.00;1.00;;;;;;2268369;61;1338;-87
2023/12/27 13:51:54;56681.00;0.19;98.74;0.00;0.00;0.62;;;;;15.10;1.00;;;;;;2268407;61;1928;-86
2023/12/27 13:54:20;2451.00;0.01;4.87;0.00;0.00;0.62;;;;;15.10;1.00;;;;;;2268437;61;1011;-86
2023/12/27 13:56:47;0.00;0.00;0.62;0.00;0.00;0.62;;;;;15.10;1.00;;;;;;2268430;61;1114;-86
2023/12/27 13:59:14;7556.00;0.03;13.71;0.00;0.00;0.62;;;;;15.00;1.00;;;;;;2268341;61;1906;-85
2023/12/27 14:01:41;48683.00;0.16;84.91;0.00;0.00;0.62;;;;;15.00;1.00;;;;;;2268405;61;1114;-87
2023/12/27 14:04:10;75127.00;0.25;130.62;0.00;0.00;0.62;;;;;15.00;1.00;;;;;;2268314;61;1130;-86
2023/12/27 14:06:37;201497.00;0.67;348.50;0.00;0.00;0.62;;;;;14.90;1.00;;;;;;2268441;61;1119;-86
2023/12/27 14:09:04;37681.00;0.13;65.88;0.00;0.00;0.62;;;;;14.90;1.00;;;;;;2268308;61;1344;-86
2023/12/27 14:11:31;3330.00;0.01;6.39;0.00;0.00;0.62;;;;;14.90;1.00;;;;;;2268377;61;1920;-86
2023/12/27 14:13:59;44856.00;0.15;78.29;0.00;0.00;0.62;;;;;14.80;1.00;;;;;;2268390;61;1042;-88
2023/12/27 14:16:25;0.00;0.00;0.62;0.00;0.00;0.62;;;;;15.50;1.00;;;;;;2268214;61;1294;-88
2023/12/27 14:18:53;507.00;0.00;1.50;0.00;0.00;0.62;;;;;15.90;1.00;;;;;;2268330;61;1346;-86
2023/12/27 14:21:22;71155.00;0.24;123.76;0.00;0.00;0.62;;;;;15.90;1.00;;;;;;2268350;61;996;-87
2023/12/27 14:23:49;82464.00;0.27;143.29;0.00;0.00;0.62;;;;;15.40;1.00;;;;;;2268299;61;1138;-87
2023/12/27 14:26:16;26815.00;0.09;47.07;0.00;0.00;0.62;;;;;15.20;1.00;;;;;;2268299;61;1128;-87
2023/12/27 14:28:43;195612.00;0.65;338.37;56231.00;0.19;97.96;;;;;14.90;1.00;;;;;;2268257;61;1281;-87
2023/12/27 14:31:15;73769.00;0.25;128.27;0.00;0.00;0.62;;;;;14.80;1.00;;;;;;2268230;61;2010;-86
2023/12/27 14:33:43;198840.00;0.66;343.93;29882.00;0.10;52.38;;;;;14.70;1.00;;;;;;2268217;61;1079;-86
2023/12/27 14:36:10;160729.00;0.54;278.30;0.00;0.00;0.62;;;;;14.60;1.00;;;;;;2268140;61;1055;-86
2023/12/27 14:38:41;200029.00;0.67;345.97;0.00;0.00;0.62;;;;;14.60;1.00;;;;;;2267937;61;1341;-87
2023/12/27 14:41:08;31525.00;0.11;55.22;0.00;0.00;0.62;;;;;14.60;1.00;;;;;;2268228;61;1558;-86
2023/12/27 14:43:35;18522.00;0.06;32.71;0.00;0.00;0.62;;;;;14.50;1.00;;;;;;2268141;61;1057;-86
2023/12/27 14:46:01;31759.00;0.11;55.63;0.00;0.00;0.62;;;;;14.30;1.00;;;;;;2268231;61;1104;-85
2023/12/27 14:48:30;121583.00;0.41;210.81;0.00;0.00;0.62;;;;;14.20;1.00;;;;;;2267965;61;1258;-87
2023/12/27 14:50:57;22137.00;0.07;38.97;0.00;0.00;0.62;;;;;14.20;1.00;;;;;;2268186;61;2010;-87
2023/12/27 14:53:24;152004.00;0.51;263.26;26271.00;0.09;46.13;;;;;14.20;1.00;;;;;;2268217;61;1687;-86
2023/12/27 14:55:52;151425.00;0.50;262.26;0.00;0.00;0.62;;;;;14.10;1.00;;;;;;2268214;61;1651;-87
2023/12/27 14:58:19;205035.00;0.68;354.59;31824.00;0.11;55.74;;;;;14.00;1.00;;;;;;2268085;61;1263;-87
2023/12/27 15:00:46;237.00;0.00;1.03;0.00;0.00;0.62;;;;;13.90;1.00;;;;;;2268175;61;1014;-87
2023/12/27 15:03:13;75380.00;0.25;131.06;0.00;0.00;0.62;;;;;13.80;1.00;;;;;;2268129;61;1039;-87
2023/12/27 15:05:40;31984.00;0.11;56.02;0.00;0.00;0.62;;;;;13.70;1.00;;;;;;2268245;61;1093;-86
2023/12/27 15:08:07;235291.00;0.78;406.65;70398.00;0.23;122.45;;;;;13.50;1.00;;;;;;2268141;61;1364;-87
2023/12/27 15:10:34;198269.00;0.66;342.94;0.00;0.00;0.62;;;;;13.60;1.00;;;;;;2268120;61;1919;-89
2023/12/27 15:13:02;71222.00;0.24;123.87;0.00;0.00;0.62;;;;;13.50;1.00;;;;;;2268154;61;1130;-87
2023/12/27 15:15:30;140967.00;0.47;244.24;0.00;0.00;0.62;;;;;13.30;1.00;;;;;;2268203;61;1083;-86
2023/12/27 15:17:57;21251.00;0.07;37.44;0.00;0.00;0.62;;;;;13.10;1.00;;;;;;2268085;61;1384;-87
2023/12/27 15:20:23;136615.00;0.46;236.74;34641.00;0.12;60.62;;;;;13.00;1.00;;;;;;2268158;61;1596;-86
2023/12/27 15:22:51;131165.00;0.44;227.34;0.00;0.00;0.62;;;;;13.00;1.00;;;;;;2268201;61;1086;-86
2023/12/27 15:25:18;119471.00;0.40;207.17;10950.00;0.04;19.59;;;;;12.80;1.00;;;;;;2268164;61;1111;-87
2023/12/27 15:27:45;46614.00;0.16;81.33;0.00;0.00;0.62;;;;;12.70;1.00;;;;;;2268071;61;1086;-87
2023/12/27 15:30:14;102744.00;0.34;178.31;0.00;0.00;0.62;;;;;12.80;1.00;;;;;;2268186;61;1173;-87
2023/12/27 15:32:42;159172.00;0.53;275.61;30492.00;0.10;53.43;;;;;12.70;1.00;;;;;;2268200;61;1060;-87
2023/12/27 15:35:10;26580.00;0.09;46.66;0.00;0.00;0.62;;;;;12.70;1.00;;;;;;2268163;61;1050;-85
2023/12/27 15:37:38;150875.00;0.50;261.32;30559.00;0.10;53.55;;;;;12.60;1.00;;;;;;2268130;61;2235;-86
2023/12/27 15:40:06;170436.00;0.57;295.02;0.00;0.00;0.62;;;;;12.60;1.00;;;;;;2268105;61;1245;-87
2023/12/27 15:42:33;81970.00;0.27;142.44;0.00;0.00;0.62;;;;;12.50;1.00;;;;;;2268164;61;1147;-87
2023/12/27 15:45:00;170904.00;0.57;295.82;5032.00;0.02;9.34;;;;;12.30;1.00;;;;;;2268096;61;1075;-87
2023/12/27 15:47:28;59121.00;0.20;102.96;0.00;0.00;0.62;;;;;12.30;1.00;;;;;;2268115;61;1751;-87
2023/12/27 15:49:55;63610.00;0.21;110.72;0.00;0.00;0.62;;;;;12.30;1.00;;;;;;2268077;61;1412;-86
2023/12/27 15:52:22;136775.00;0.46;237.01;7924.00;0.03;14.35;;;;;12.30;1.00;;;;;;2268059;61;1939;-87
2023/12/27 15:54:50;215043.00;0.72;371.81;0.00;0.00;0.62;;;;;12.20;1.00;;;;;;2268138;61;1086;-85
2023/12/27 15:57:18;166013.00;0.55;287.40;0.00;0.00;0.62;;;;;12.10;1.00;;;;;;2268048;61;1048;-86
2023/12/27 15:59:45;3573625.00;11.91;7515.02;608.00;0.00;1.67;;;;;12.00;1.00;;;;;;2267981;61;1308;-86
2023/12/27 16:02:12;117288144.00;390.96;65356652.00;1021.00;0.00;2.39;;;;;12.10;1.00;;;;;;2268023;61;1063;-87
2023/12/27 16:04:40;188274.00;0.63;325.74;0.00;0.00;0.62;;;;;12.10;1.00;;;;;;2268045;61;1048;-87
2023/12/27 16:07:07;165042.00;0.55;285.73;0.00;0.00;0.62;;;;;12.20;1.00;;;;;;2268039;61;896;-85
2023/12/27 16:09:34;214808.00;0.72;371.41;5833.00;0.02;10.73;;;;;12.00;1.00;;;;;;2267852;61;1818;-86
2023/12/27 16:12:03;156071.00;0.52;270.27;0.00;0.00;0.62;;;;;11.70;1.00;;;;;;2267969;61;1920;-86
2023/12/27 16:14:30;36488.00;0.12;63.81;0.00;0.00;0.62;;;;;11.70;1.00;;;;;;2268092;61;1119;-88
2023/12/27 16:16:57;145324.00;0.48;251.75;19910.00;0.07;35.11;;;;;11.70;1.00;;;;;;2267994;61;1640;-87
2023/12/27 16:19:24;150741.00;0.50;261.08;0.00;0.00;0.62;;;;;11.70;1.00;;;;;;2267942;61;1423;-86
2023/12/27 16:21:53;18516.00;0.06;32.70;0.00;0.00;0.62;;;;;11.40;1.00;;;;;;2268052;61;1221;-86
2023/12/27 16:24:19;193917.00;0.65;335.45;13394.00;0.04;23.83;;;;;11.10;1.00;;;;;;2267977;61;2235;-86
2023/12/27 16:26:46;148293.00;0.49;256.87;20127.00;0.07;35.49;;;;;11.30;1.00;;;;;;2267974;61;881;-87
2023/12/27 16:29:16;155123.00;0.52;268.64;0.00;0.00;0.62;;;;;11.30;1.00;;;;;;2267904;61;1373;-86
2023/12/27 16:31:43;72612.00;0.24;126.27;0.00;0.00;0.62;;;;;11.30;1.00;;;;;;2267922;61;2000;-87
2023/12/27 16:34:10;16802.00;0.06;29.73;0.00;0.00;0.62;;;;;11.20;1.00;;;;;;2267933;61;2323;-85
2023/12/27 16:39:08;120520.00;0.40;208.98;0.00;0.00;0.62;;;;;11.40;1.00;;;;;;2268468;61;1303;-88
2023/12/27 16:41:35;365746.00;1.22;630.92;31885.00;0.11;55.85;;;;;12.20;1.00;;;;;;2263876;61;1479;-85
2023/12/27 16:44:02;176302.00;0.59;305.12;19023.00;0.06;33.58;;;;;12.30;1.00;;;;;;2268931;55;3764;-86
2023/12/27 16:46:29;94148.00;0.31;163.47;0.00;0.00;0.62;;;;;11.90;1.00;;;;;;2267872;61;1084;-86
2023/12/27 16:48:58;202348.00;0.67;349.97;21172.00;0.07;37.30;;;;;11.80;1.00;;;;;;2267889;61;1379;-87
2023/12/27 16:51:25;0.00;0.00;0.62;0.00;0.00;0.62;;;;;11.50;1.00;;;;;;2267897;61;2006;-85
2023/12/27 16:53:52;189796.00;0.63;328.36;0.00;0.00;0.62;;;;;11.30;1.00;;;;;;2267933;61;1109;-86
2023/12/27 16:56:20;76871.00;0.26;133.63;0.00;0.00;0.62;;;;;11.30;1.00;;;;;;2267931;61;1075;-88
2023/12/27 16:58:47;74242.00;0.25;129.09;0.00;0.00;0.62;;;;;11.20;1.00;;;;;;2267828;61;1278;-85
2023/12/27 17:01:15;229101.00;0.76;396.00;0.00;0.00;0.62;;;;;11.30;1.00;;;;;;2267948;61;1194;-85
2023/12/27 17:03:42;268459.00;0.89;463.69;0.00;0.00;0.62;;;;;11.20;1.00;;;;;;2267794;61;1791;-85
2023/12/27 17:06:11;39878.00;0.13;69.68;0.00;0.00;0.62;;;;;11.10;1.00;;;;;;2267860;61;1147;-86
2023/12/27 17:08:38;188541.00;0.63;326.20;0.00;0.00;0.62;;;;;10.80;1.00;;;;;;2267759;61;1283;-86
2023/12/27 17:11:05;222745.00;0.74;385.07;37608.00;0.13;65.75;;;;;10.70;1.00;;;;;;2267812;61;1997;-85
2023/12/27 17:13:33;170630.00;0.57;295.35;0.00;0.00;0.62;;;;;10.70;1.00;;;;;;2268500;61;1050;-86
2023/12/27 17:16:00;166061.00;0.55;287.48;0.00;0.00;0.62;;;;;10.70;1.00;;;;;;2268614;61;1119;-87
2023/12/27 17:18:27;170144.00;0.57;294.51;0.00;0.00;0.62;;;;;10.90;1.00;;;;;;2268516;61;1365;-86
2023/12/27 17:20:54;177300.00;0.59;306.84;0.00;0.00;0.62;;;;;11.20;1.00;;;;;;2268525;61;1046;-85
2023/12/27 17:23:20;163320.00;0.54;282.76;62592.00;0.21;108.96;;;;;11.10;1.00;;;;;;2268544;61;1079;-86
2023/12/27 17:25:47;128862.00;0.43;223.37;0.00;0.00;0.62;;;;;10.90;1.00;;;;;;2268503;61;1114;-86
2023/12/27 17:28:14;178007.00;0.59;308.06;34656.00;0.12;60.64;;;;;10.80;1.00;;;;;;2268502;61;1267;-86
2023/12/27 17:30:43;81838.00;0.27;142.21;0.00;0.00;0.62;;;;;10.80;1.00;;;;;;2268542;61;960;-86
2023/12/27 17:33:10;42365.00;0.14;73.98;0.00;0.00;0.62;;;;;10.70;1.00;;;;;;2268550;61;2025;-83
2023/12/27 17:35:37;97528.00;0.33;169.30;0.00;0.00;0.62;;;;;10.50;1.00;;;;;;2268512;61;1025;-85
2023/12/27 17:38:04;62986.00;0.21;109.64;0.00;0.00;0.62;;;;;10.40;1.00;;;;;;2268502;61;1370;-85
2023/12/27 17:40:31;114028.00;0.38;197.78;0.00;0.00;0.62;;;;;10.20;1.00;;;;;;2268528;61;1110;-86
2023/12/27 17:42:58;95286.00;0.32;165.43;0.00;0.00;0.62;;;;;10.00;1.00;;;;;;2268481;61;1111;-85
2023/12/27 17:45:25;421405.00;1.40;726.61;56421.00;0.19;98.29;;;;;10.00;1.00;;;;;;2268435;61;1129;-85
2023/12/27 17:47:53;333028.00;1.11;574.69;2072.00;0.01;4.21;;;;;10.10;1.00;;;;;;2268467;61;1213;-86
2023/12/27 17:50:20;320123.00;1.07;552.51;13623.00;0.05;24.23;;;;;10.10;1.00;;;;;;2268441;61;1540;-86
2023/12/27 17:52:47;282250.00;0.94;487.41;12362.00;0.04;22.04;;;;;10.00;1.00;;;;;;2268399;61;1996;-86
2023/12/27 17:55:14;118092.00;0.39;204.79;0.00;0.00;0.62;;;;;10.10;1.00;;;;;;2268419;61;1032;-85
2023/12/27 17:57:43;247774.00;0.83;428.12;62891.00;0.21;109.47;;;;;10.20;1.00;;;;;;2268429;61;946;-86
2023/12/27 18:00:12;303919.00;1.01;524.66;33310.00;0.11;58.31;;;;;10.30;1.00;;;;;;2268256;61;1348;-87
2023/12/27 18:02:41;209453.00;0.70;362.19;39762.00;0.13;69.48;;;;;10.50;1.00;;;;;;2268380;61;1062;-87
2023/12/27 18:05:10;353114.00;1.18;609.21;57718.00;0.19;100.53;;;;;10.40;1.00;;;;;;2268432;61;1099;-85